sensor_id;sensor_type;location;lat;lon;timestamp;pressure;altitude;pressure_sealevel;temperature;humidity
66668;BME280;57205;51.438;-2.006;2023-04-26T00:01:40;101130.03;;;6.91;100.00
66668;BME280;57205;51.438;-2.006;2023-04-26T00:04:06;101117.31;;;6.93;100.00
66668;BME280;57205;51.438;-2.006;2023-04-26T00:06:32;101106.22;;;6.97;100.00
66668;BME280;57205;51.438;-2.006;2023-04-26T00:08:59;101113.75;;;7.00;100.00
66668;BME280;57205;51.438;-2.006;2023-04-26T00:11:24;101106.00;;;6.98;99.81
66668;BME280;57205;51.438;-2.006;2023-04-26T00:13:50;101101.94;;;6.96;98.52
66668;BME280;57205;51.438;-2.006;2023-04-26T00:16:15;101102.75;;;6.96;98.12
66668;BME280;57205;51.438;-2.006;2023-04-26T00:18:42;101113.75;;;7.00;100.00
66668;BME280;57205;51.438;-2.006;2023-04-26T00:21:09;101110.16;;;6.94;98.73
66668;BME280;57205;51.438;-2.006;2023-04-26T00:23:34;101109.56;;;6.92;99.27
66668;BME280;57205;51.438;-2.006;2023-04-26T00:26:01;101106.09;;;6.91;99.77
66668;BME280;57205;51.438;-2.006;2023-04-26T00:28:28;101108.16;;;6.89;99.59
66668;BME280;57205;51.438;-2.006;2023-04-26T00:30:53;101101.47;;;6.87;99.24
66668;BME280;57205;51.438;-2.006;2023-04-26T00:33:24;101102.25;;;6.87;98.68
66668;BME280;57205;51.438;-2.006;2023-04-26T00:35:50;101098.56;;;6.88;99.57
66668;BME280;57205;51.438;-2.006;2023-04-26T00:38:15;101095.91;;;6.88;99.37
66668;BME280;57205;51.438;-2.006;2023-04-26T00:40:41;101098.56;;;6.88;99.52
66668;BME280;57205;51.438;-2.006;2023-04-26T00:43:06;101105.28;;;6.91;99.77
66668;BME280;57205;51.438;-2.006;2023-04-26T00:45:31;101110.38;;;6.93;99.34
66668;BME280;57205;51.438;-2.006;2023-04-26T00:47:59;101102.63;;;6.91;99.12
66668;BME280;57205;51.438;-2.006;2023-04-26T00:50:25;101100.53;;;6.93;98.20
66668;BME280;57205;51.438;-2.006;2023-04-26T00:52:51;101096.03;;;6.93;98.39
66668;BME280;57205;51.438;-2.006;2023-04-26T00:55:17;101105.66;;;6.95;98.49
66668;BME280;57205;51.438;-2.006;2023-04-26T00:57:45;101097.66;;;6.95;98.83
66668;BME280;57205;51.438;-2.006;2023-04-26T01:00:11;101092.78;;;6.91;99.41
66668;BME280;57205;51.438;-2.006;2023-04-26T01:02:37;101088.50;;;6.90;99.63
66668;BME280;57205;51.438;-2.006;2023-04-26T01:05:03;101087.56;;;6.85;100.00
66668;BME280;57205;51.438;-2.006;2023-04-26T01:07:29;101093.13;;;6.83;100.00
66668;BME280;57205;51.438;-2.006;2023-04-26T01:09:56;101097.03;;;6.81;100.00
66668;BME280;57205;51.438;-2.006;2023-04-26T01:12:23;101099.94;;;6.79;100.00
66668;BME280;57205;51.438;-2.006;2023-04-26T01:14:48;101102.00;;;6.77;100.00
66668;BME280;57205;51.438;-2.006;2023-04-26T01:17:14;101098.75;;;6.75;100.00
66668;BME280;57205;51.438;-2.006;2023-04-26T01:19:49;101102.00;;;6.77;100.00
66668;BME280;57205;51.438;-2.006;2023-04-26T01:22:14;101103.63;;;6.78;100.00
66668;BME280;57205;51.438;-2.006;2023-04-26T01:24:42;101106.50;;;6.77;100.00
66668;BME280;57205;51.438;-2.006;2023-04-26T01:27:09;101101.44;;;6.75;100.00
66668;BME280;57205;51.438;-2.006;2023-04-26T01:29:34;101102.91;;;6.71;100.00
66668;BME280;57205;51.438;-2.006;2023-04-26T01:32:00;101089.50;;;6.66;100.00
66668;BME280;57205;51.438;-2.006;2023-04-26T01:34:25;101087.06;;;6.65;100.00
66668;BME280;57205;51.438;-2.006;2023-04-26T01:36:50;101089.50;;;6.66;100.00
66668;BME280;57205;51.438;-2.006;2023-04-26T01:39:16;101086.25;;;6.64;100.00
66668;BME280;57205;51.438;-2.006;2023-04-26T01:41:41;101090.50;;;6.65;100.00
66668;BME280;57205;51.438;-2.006;2023-04-26T01:44:07;101094.69;;;6.61;100.00
66668;BME280;57205;51.438;-2.006;2023-04-26T01:46:32;101089.13;;;6.63;100.00
66668;BME280;57205;51.438;-2.006;2023-04-26T01:48:57;101093.28;;;6.59;100.00
66668;BME280;57205;51.438;-2.006;2023-04-26T01:51:23;101092.94;;;6.55;100.00
66668;BME280;57205;51.438;-2.006;2023-04-26T01:53:48;101092.34;;;6.53;100.00
66668;BME280;57205;51.438;-2.006;2023-04-26T01:56:14;101081.13;;;6.51;100.00
66668;BME280;57205;51.438;-2.006;2023-04-26T01:58:40;101087.25;;;6.52;100.00
66668;BME280;57205;51.438;-2.006;2023-04-26T02:01:06;101091.75;;;6.51;100.00
66668;BME280;57205;51.438;-2.006;2023-04-26T02:03:32;101104.44;;;6.49;100.00
66668;BME280;57205;51.438;-2.006;2023-04-26T02:05:58;101097.88;;;6.52;100.00
66668;BME280;57205;51.438;-2.006;2023-04-26T02:08:23;101094.41;;;6.51;100.00
66668;BME280;57205;51.438;-2.006;2023-04-26T02:10:48;101097.31;;;6.50;100.00
66668;BME280;57205;51.438;-2.006;2023-04-26T02:13:14;101093.00;;;6.49;100.00
66668;BME280;57205;51.438;-2.006;2023-04-26T02:15:40;101091.16;;;6.49;100.00
66668;BME280;57205;51.438;-2.006;2023-04-26T02:18:06;101094.06;;;6.48;100.00
66668;BME280;57205;51.438;-2.006;2023-04-26T02:20:32;101090.13;;;6.50;100.00
66668;BME280;57205;51.438;-2.006;2023-04-26T02:22:57;101095.22;;;6.52;100.00
66668;BME280;57205;51.438;-2.006;2023-04-26T02:25:23;101096.25;;;6.51;100.00
66668;BME280;57205;51.438;-2.006;2023-04-26T02:27:49;101090.56;;;6.47;100.00
66668;BME280;57205;51.438;-2.006;2023-04-26T02:30:14;101096.72;;;6.48;100.00
66668;BME280;57205;51.438;-2.006;2023-04-26T02:32:40;101093.22;;;6.47;100.00
66668;BME280;57205;51.438;-2.006;2023-04-26T02:35:05;101090.00;;;6.45;100.00
66668;BME280;57205;51.438;-2.006;2023-04-26T02:37:31;101085.50;;;6.46;100.00
66668;BME280;57205;51.438;-2.006;2023-04-26T02:39:57;101081.66;;;6.42;100.00
66668;BME280;57205;51.438;-2.006;2023-04-26T02:42:23;101079.34;;;6.45;100.00
66668;BME280;57205;51.438;-2.006;2023-04-26T02:44:49;101076.09;;;6.43;100.00
66668;BME280;57205;51.438;-2.006;2023-04-26T02:47:14;101070.22;;;6.41;100.00
66668;BME280;57205;51.438;-2.006;2023-04-26T02:49:40;101071.84;;;6.42;100.00
66668;BME280;57205;51.438;-2.006;2023-04-26T02:52:06;101066.28;;;6.44;100.00
66668;BME280;57205;51.438;-2.006;2023-04-26T02:54:31;101070.56;;;6.45;100.00
66668;BME280;57205;51.438;-2.006;2023-04-26T02:56:57;101072.44;;;6.44;100.00
66668;BME280;57205;51.438;-2.006;2023-04-26T02:59:23;101073.69;;;6.42;100.00
66668;BME280;57205;51.438;-2.006;2023-04-26T03:01:48;101062.47;;;6.40;100.00
66668;BME280;57205;51.438;-2.006;2023-04-26T03:04:13;101053.53;;;6.34;100.00
66668;BME280;57205;51.438;-2.006;2023-04-26T03:06:41;101055.19;;;6.35;100.00
66668;BME280;57205;51.438;-2.006;2023-04-26T03:09:06;101053.66;;;6.28;100.00
66668;BME280;57205;51.438;-2.006;2023-04-26T03:11:32;101041.03;;;6.23;100.00
66668;BME280;57205;51.438;-2.006;2023-04-26T03:13:57;101054.19;;;6.18;100.00
66668;BME280;57205;51.438;-2.006;2023-04-26T03:16:23;101048.72;;;6.13;100.00
66668;BME280;57205;51.438;-2.006;2023-04-26T03:18:48;101048.59;;;6.08;100.00
66668;BME280;57205;51.438;-2.006;2023-04-26T03:21:14;101054.34;;;6.05;100.00
66668;BME280;57205;51.438;-2.006;2023-04-26T03:23:40;101045.78;;;6.03;100.00
66668;BME280;57205;51.438;-2.006;2023-04-26T03:26:05;101051.56;;;6.00;100.00
66668;BME280;57205;51.438;-2.006;2023-04-26T03:28:31;101044.84;;;5.98;100.00
66668;BME280;57205;51.438;-2.006;2023-04-26T03:30:56;101042.56;;;6.01;100.00
66668;BME280;57205;51.438;-2.006;2023-04-26T03:33:22;101040.47;;;6.03;100.00
66668;BME280;57205;51.438;-2.006;2023-04-26T03:35:47;101037.38;;;6.06;100.00
66668;BME280;57205;51.438;-2.006;2023-04-26T03:38:13;101030.75;;;5.97;100.00
66668;BME280;57205;51.438;-2.006;2023-04-26T03:40:38;101025.44;;;5.97;100.00
66668;BME280;57205;51.438;-2.006;2023-04-26T03:43:04;101025.06;;;5.93;100.00
66668;BME280;57205;51.438;-2.006;2023-04-26T03:45:29;101024.25;;;5.93;100.00
66668;BME280;57205;51.438;-2.006;2023-04-26T03:47:55;101026.69;;;5.94;100.00
66668;BME280;57205;51.438;-2.006;2023-04-26T03:50:20;101030.03;;;5.90;100.00
66668;BME280;57205;51.438;-2.006;2023-04-26T03:52:46;101028.63;;;5.87;100.00
66668;BME280;57205;51.438;-2.006;2023-04-26T03:55:12;101031.28;;;5.87;100.00
66668;BME280;57205;51.438;-2.006;2023-04-26T03:57:37;101021.69;;;5.86;100.00
66668;BME280;57205;51.438;-2.006;2023-04-26T04:00:03;101014.16;;;5.83;100.00
66668;BME280;57205;51.438;-2.006;2023-04-26T04:02:39;101011.50;;;5.83;100.00
66668;BME280;57205;51.438;-2.006;2023-04-26T04:05:05;101005.59;;;5.81;100.00
66668;BME280;57205;51.438;-2.006;2023-04-26T04:07:30;101003.72;;;5.82;100.00
66668;BME280;57205;51.438;-2.006;2023-04-26T04:09:57;100994.78;;;5.83;100.00
66668;BME280;57205;51.438;-2.006;2023-04-26T04:12:23;100995.63;;;5.77;100.00
66668;BME280;57205;51.438;-2.006;2023-04-26T04:14:49;100990.56;;;5.75;100.00
66668;BME280;57205;51.438;-2.006;2023-04-26T04:17:14;100990.63;;;5.69;100.00
66668;BME280;57205;51.438;-2.006;2023-04-26T04:19:40;100993.50;;;5.67;100.00
66668;BME280;57205;51.438;-2.006;2023-04-26T04:22:05;100992.78;;;5.60;100.00
66668;BME280;57205;51.438;-2.006;2023-04-26T04:24:31;100988.13;;;5.56;100.00
66668;BME280;57205;51.438;-2.006;2023-04-26T04:26:56;100980.03;;;5.51;100.00
66668;BME280;57205;51.438;-2.006;2023-04-26T04:29:22;100983.91;;;5.48;100.00
66668;BME280;57205;51.438;-2.006;2023-04-26T04:31:47;100984.28;;;5.52;100.00
66668;BME280;57205;51.438;-2.006;2023-04-26T04:34:12;100987.75;;;5.52;100.00
66668;BME280;57205;51.438;-2.006;2023-04-26T04:36:38;100984.75;;;5.49;100.00
66668;BME280;57205;51.438;-2.006;2023-04-26T04:39:04;100988.44;;;5.48;100.00
66668;BME280;57205;51.438;-2.006;2023-04-26T04:41:36;100981.28;;;5.48;100.00
66668;BME280;57205;51.438;-2.006;2023-04-26T04:44:01;100983.91;;;5.48;100.00
66668;BME280;57205;51.438;-2.006;2023-04-26T04:46:28;100975.53;;;5.51;100.00
66668;BME280;57205;51.438;-2.006;2023-04-26T04:48:54;100978.19;;;5.51;100.00
66668;BME280;57205;51.438;-2.006;2023-04-26T04:51:19;100991.22;;;5.53;100.00
66668;BME280;57205;51.438;-2.006;2023-04-26T04:53:45;100990.03;;;5.49;100.00
66668;BME280;57205;51.438;-2.006;2023-04-26T04:56:10;100989.03;;;5.50;100.00
66668;BME280;57205;51.438;-2.006;2023-04-26T04:58:36;100995.13;;;5.50;100.00
66668;BME280;57205;51.438;-2.006;2023-04-26T05:01:02;100989.59;;;5.52;100.00
66668;BME280;57205;51.438;-2.006;2023-04-26T05:03:27;100990.00;;;5.55;100.00
66668;BME280;57205;51.438;-2.006;2023-04-26T05:05:52;100991.59;;;5.56;100.00
66668;BME280;57205;51.438;-2.006;2023-04-26T05:08:18;100994.25;;;5.56;100.00
66668;BME280;57205;51.438;-2.006;2023-04-26T05:10:44;100997.28;;;5.60;100.00
66668;BME280;57205;51.438;-2.006;2023-04-26T05:13:09;101002.34;;;5.61;100.00
66668;BME280;57205;51.438;-2.006;2023-04-26T05:15:35;100995.44;;;5.60;100.00
66668;BME280;57205;51.438;-2.006;2023-04-26T05:18:01;100994.63;;;5.60;100.00
66668;BME280;57205;51.438;-2.006;2023-04-26T05:20:26;100997.41;;;5.65;100.00
66668;BME280;57205;51.438;-2.006;2023-04-26T05:22:52;101005.81;;;5.62;100.00
66668;BME280;57205;51.438;-2.006;2023-04-26T05:25:17;100998.09;;;5.60;100.00
66668;BME280;57205;51.438;-2.006;2023-04-26T05:27:43;100998.00;;;5.67;100.00
66668;BME280;57205;51.438;-2.006;2023-04-26T05:30:10;101005.75;;;5.68;100.00
66668;BME280;57205;51.438;-2.006;2023-04-26T05:32:36;101013.28;;;5.71;100.00
66668;BME280;57205;51.438;-2.006;2023-04-26T05:35:01;101008.31;;;5.75;100.00
66668;BME280;57205;51.438;-2.006;2023-04-26T05:37:27;101016.28;;;5.75;100.00
66668;BME280;57205;51.438;-2.006;2023-04-26T05:39:53;101021.13;;;5.78;100.00
66668;BME280;57205;51.438;-2.006;2023-04-26T05:42:18;101014.97;;;5.84;100.00
66668;BME280;57205;51.438;-2.006;2023-04-26T05:44:44;101011.91;;;5.87;100.00
66668;BME280;57205;51.438;-2.006;2023-04-26T05:47:09;101007.97;;;5.89;100.00
66668;BME280;57205;51.438;-2.006;2023-04-26T05:49:34;101012.63;;;5.94;100.00
66668;BME280;57205;51.438;-2.006;2023-04-26T05:52:00;101002.94;;;6.00;100.00
66668;BME280;57205;51.438;-2.006;2023-04-26T05:54:27;101012.09;;;6.04;100.00
66668;BME280;57205;51.438;-2.006;2023-04-26T05:56:53;101001.22;;;6.05;100.00
66668;BME280;57205;51.438;-2.006;2023-04-26T05:59:18;101005.06;;;6.09;100.00
66668;BME280;57205;51.438;-2.006;2023-04-26T06:01:43;101011.75;;;6.12;100.00
66668;BME280;57205;51.438;-2.006;2023-04-26T06:04:09;101002.75;;;6.13;100.00
66668;BME280;57205;51.438;-2.006;2023-04-26T06:06:34;101000.34;;;6.11;100.00
66668;BME280;57205;51.438;-2.006;2023-04-26T06:09:00;100996.88;;;6.11;100.00
66668;BME280;57205;51.438;-2.006;2023-04-26T06:11:25;100996.16;;;6.15;100.00
66668;BME280;57205;51.438;-2.006;2023-04-26T06:13:51;101005.47;;;6.24;100.00
66668;BME280;57205;51.438;-2.006;2023-04-26T06:16:16;100991.84;;;6.32;100.00
66668;BME280;57205;51.438;-2.006;2023-04-26T06:18:42;100999.81;;;6.32;100.00
66668;BME280;57205;51.438;-2.006;2023-04-26T06:21:07;100996.25;;;6.38;100.00
66668;BME280;57205;51.438;-2.006;2023-04-26T06:23:32;100989.69;;;6.41;100.00
66668;BME280;57205;51.438;-2.006;2023-04-26T06:25:58;100996.97;;;6.45;100.00
66668;BME280;57205;51.438;-2.006;2023-04-26T06:28:23;100992.22;;;6.47;100.00
66668;BME280;57205;51.438;-2.006;2023-04-26T06:30:49;100992.94;;;6.54;100.00
66668;BME280;57205;51.438;-2.006;2023-04-26T06:33:14;100988.19;;;6.56;100.00
66668;BME280;57205;51.438;-2.006;2023-04-26T06:35:40;100980.47;;;6.66;100.00
66668;BME280;57205;51.438;-2.006;2023-04-26T06:38:06;100984.88;;;6.72;100.00
66668;BME280;57205;51.438;-2.006;2023-04-26T06:40:31;100988.81;;;6.81;100.00
66668;BME280;57205;51.438;-2.006;2023-04-26T06:42:57;101004.75;;;6.93;100.00
66668;BME280;57205;51.438;-2.006;2023-04-26T06:45:23;100999.69;;;6.91;100.00
66668;BME280;57205;51.438;-2.006;2023-04-26T06:47:50;100993.91;;;6.95;100.00
66668;BME280;57205;51.438;-2.006;2023-04-26T06:50:17;101009.06;;;7.06;100.00
66668;BME280;57205;51.438;-2.006;2023-04-26T06:52:42;101002.94;;;7.05;100.00
66668;BME280;57205;51.438;-2.006;2023-04-26T06:55:08;100994.28;;;7.10;100.00
66668;BME280;57205;51.438;-2.006;2023-04-26T06:57:34;100993.22;;;7.22;100.00
66668;BME280;57205;51.438;-2.006;2023-04-26T06:59:59;100983.94;;;7.36;100.00
66668;BME280;57205;51.438;-2.006;2023-04-26T07:02:25;100993.50;;;7.60;100.00
66668;BME280;57205;51.438;-2.006;2023-04-26T07:04:50;100994.00;;;7.85;100.00
66668;BME280;57205;51.438;-2.006;2023-04-26T07:07:16;100994.09;;;8.19;100.00
66668;BME280;57205;51.438;-2.006;2023-04-26T07:09:42;100996.91;;;8.40;100.00
66668;BME280;57205;51.438;-2.006;2023-04-26T07:12:10;100991.53;;;8.68;100.00
66668;BME280;57205;51.438;-2.006;2023-04-26T07:14:35;101004.06;;;8.84;100.00
66668;BME280;57205;51.438;-2.006;2023-04-26T07:17:04;101004.84;;;9.02;100.00
66668;BME280;57205;51.438;-2.006;2023-04-26T07:19:30;100994.34;;;9.12;100.00
66668;BME280;57205;51.438;-2.006;2023-04-26T07:21:57;100996.88;;;9.40;99.66
66668;BME280;57205;51.438;-2.006;2023-04-26T07:24:23;100995.81;;;9.62;98.06
66668;BME280;57205;51.438;-2.006;2023-04-26T07:26:51;100988.19;;;9.71;97.66
66668;BME280;57205;51.438;-2.006;2023-04-26T07:29:16;100988.41;;;9.91;96.46
66668;BME280;57205;51.438;-2.006;2023-04-26T07:31:43;100990.53;;;9.89;95.15
66668;BME280;57205;51.438;-2.006;2023-04-26T07:34:09;100979.25;;;10.09;95.85
66668;BME280;57205;51.438;-2.006;2023-04-26T07:36:34;100993.13;;;10.27;94.80
66668;BME280;57205;51.438;-2.006;2023-04-26T07:38:59;100994.44;;;10.56;92.46
66668;BME280;57205;51.438;-2.006;2023-04-26T07:41:25;100987.31;;;10.67;90.36
66668;BME280;57205;51.438;-2.006;2023-04-26T07:43:50;100989.97;;;10.35;91.48
66668;BME280;57205;51.438;-2.006;2023-04-26T07:46:16;100979.38;;;10.45;91.27
66668;BME280;57205;51.438;-2.006;2023-04-26T07:48:41;100990.13;;;10.50;91.41
66668;BME280;57205;51.438;-2.006;2023-04-26T07:51:10;100984.38;;;10.68;91.37
66668;BME280;57205;51.438;-2.006;2023-04-26T07:53:36;100987.09;;;10.73;90.81
66668;BME280;57205;51.438;-2.006;2023-04-26T07:56:05;100981.59;;;10.90;89.77
66668;BME280;57205;51.438;-2.006;2023-04-26T07:58:32;100970.94;;;11.00;88.04
66668;BME280;57205;51.438;-2.006;2023-04-26T08:00:58;100976.97;;;11.22;89.13
66668;BME280;57205;51.438;-2.006;2023-04-26T08:03:23;100982.41;;;11.32;87.35
66668;BME280;57205;51.438;-2.006;2023-04-26T08:05:49;100978.59;;;11.70;84.66
66668;BME280;57205;51.438;-2.006;2023-04-26T08:08:15;100979.47;;;11.91;82.20
66668;BME280;57205;51.438;-2.006;2023-04-26T08:10:41;100983.03;;;12.26;80.63
66668;BME280;57205;51.438;-2.006;2023-04-26T08:13:07;100973.66;;;12.69;78.80
66668;BME280;57205;51.438;-2.006;2023-04-26T08:15:32;100981.44;;;12.96;77.09
66668;BME280;57205;51.438;-2.006;2023-04-26T08:17:58;100980.38;;;12.82;76.79
66668;BME280;57205;51.438;-2.006;2023-04-26T08:20:23;100975.00;;;13.07;74.75
66668;BME280;57205;51.438;-2.006;2023-04-26T08:22:54;100984.41;;;12.79;76.26
66668;BME280;57205;51.438;-2.006;2023-04-26T08:25:19;100984.69;;;12.57;76.49
66668;BME280;57205;51.438;-2.006;2023-04-26T08:27:45;100981.19;;;12.57;78.55
66668;BME280;57205;51.438;-2.006;2023-04-26T08:30:11;100980.91;;;12.73;78.00
66668;BME280;57205;51.438;-2.006;2023-04-26T08:32:36;100979.84;;;13.05;76.33
66668;BME280;57205;51.438;-2.006;2023-04-26T08:35:02;100987.06;;;13.14;75.84
66668;BME280;57205;51.438;-2.006;2023-04-26T08:37:28;100984.91;;;13.21;74.16
66668;BME280;57205;51.438;-2.006;2023-04-26T08:39:53;100981.47;;;13.06;75.30
66668;BME280;57205;51.438;-2.006;2023-04-26T08:42:19;100989.22;;;13.12;74.93
66668;BME280;57205;51.438;-2.006;2023-04-26T08:44:45;100972.31;;;13.17;76.18
66668;BME280;57205;51.438;-2.006;2023-04-26T08:50:02;100975.00;;;13.17;74.30
66668;BME280;57205;51.438;-2.006;2023-04-26T08:52:30;100969.63;;;13.02;75.78
66668;BME280;57205;51.438;-2.006;2023-04-26T08:54:57;100986.28;;;12.89;76.68
66668;BME280;57205;51.438;-2.006;2023-04-26T08:57:24;100976.31;;;12.29;78.69
66668;BME280;57205;51.438;-2.006;2023-04-26T08:59:50;100973.88;;;12.12;80.67
66668;BME280;57205;51.438;-2.006;2023-04-26T09:02:18;100974.66;;;12.03;82.99
66668;BME280;57205;51.438;-2.006;2023-04-26T09:04:48;100985.63;;;11.91;83.95
66668;BME280;57205;51.438;-2.006;2023-04-26T09:07:22;100988.97;;;11.56;85.92
66668;BME280;57205;51.438;-2.006;2023-04-26T09:09:49;100992.09;;;11.43;87.14
66668;BME280;57205;51.438;-2.006;2023-04-26T09:12:18;100993.22;;;11.06;89.21
66668;BME280;57205;51.438;-2.006;2023-04-26T09:14:45;100985.06;;;10.91;90.68
66668;BME280;57205;51.438;-2.006;2023-04-26T09:17:31;100986.47;;;10.61;92.74
66668;BME280;57205;51.438;-2.006;2023-04-26T09:19:58;100991.78;;;10.56;94.53
66668;BME280;57205;51.438;-2.006;2023-04-26T09:22:35;100995.19;;;10.52;94.51
66668;BME280;57205;51.438;-2.006;2023-04-26T09:25:02;100999.38;;;10.38;96.75
66668;BME280;57205;51.438;-2.006;2023-04-26T09:27:37;100999.56;;;10.31;98.53
66668;BME280;57205;51.438;-2.006;2023-04-26T09:35:33;101003.56;;;10.07;100.00
66668;BME280;57205;51.438;-2.006;2023-04-26T09:38:04;100999.84;;;10.08;100.00
66668;BME280;57205;51.438;-2.006;2023-04-26T09:40:35;101002.34;;;10.15;100.00
66668;BME280;57205;51.438;-2.006;2023-04-26T09:43:06;100999.47;;;10.21;99.53
66668;BME280;57205;51.438;-2.006;2023-04-26T09:45:33;100998.47;;;10.27;99.21
66668;BME280;57205;51.438;-2.006;2023-04-26T09:48:15;101002.34;;;10.41;99.03
66668;BME280;57205;51.438;-2.006;2023-04-26T09:50:41;101005.72;;;10.58;100.00
66668;BME280;57205;51.438;-2.006;2023-04-26T09:53:08;101000.94;;;10.65;97.09
66668;BME280;57205;51.438;-2.006;2023-04-26T09:55:34;100996.47;;;10.76;96.19
66668;BME280;57205;51.438;-2.006;2023-04-26T09:58:07;100995.19;;;10.83;96.29
66668;BME280;57205;51.438;-2.006;2023-04-26T10:00:34;100994.16;;;10.85;97.23
66668;BME280;57205;51.438;-2.006;2023-04-26T10:03:01;100991.78;;;10.93;96.09
66668;BME280;57205;51.438;-2.006;2023-04-26T10:05:28;100982.72;;;10.94;96.23
66668;BME280;57205;51.438;-2.006;2023-04-26T10:07:56;100985.06;;;10.91;96.76
66668;BME280;57205;51.438;-2.006;2023-04-26T10:10:22;100991.31;;;11.01;97.02
66668;BME280;57205;51.438;-2.006;2023-04-26T10:12:47;100986.22;;;11.00;95.07
66668;BME280;57205;51.438;-2.006;2023-04-26T10:15:13;100989.13;;;10.93;96.17
66668;BME280;57205;51.438;-2.006;2023-04-26T10:17:39;100980.63;;;11.06;96.56
66668;BME280;57205;51.438;-2.006;2023-04-26T10:20:09;100985.19;;;11.06;96.01
66668;BME280;57205;51.438;-2.006;2023-04-26T10:22:44;100992.03;;;11.28;95.04
66668;BME280;57205;51.438;-2.006;2023-04-26T10:25:10;100988.03;;;11.31;94.00
66668;BME280;57205;51.438;-2.006;2023-04-26T10:30:08;100986.94;;;11.27;94.92
66668;BME280;57205;51.438;-2.006;2023-04-26T10:35:23;100984.19;;;11.17;96.40
66668;BME280;57205;51.438;-2.006;2023-04-26T10:40:25;100982.56;;;11.11;96.58
66668;BME280;57205;51.438;-2.006;2023-04-26T10:45:44;100982.31;;;11.17;97.37
66668;BME280;57205;51.438;-2.006;2023-04-26T10:53:23;100978.50;;;11.55;94.18
66668;BME280;57205;51.438;-2.006;2023-04-26T10:55:49;100975.34;;;11.63;93.16
66668;BME280;57205;51.438;-2.006;2023-04-26T11:03:36;100965.53;;;11.94;92.29
66668;BME280;57205;51.438;-2.006;2023-04-26T11:06:06;100966.38;;;12.14;91.83
66668;BME280;57205;51.438;-2.006;2023-04-26T11:08:33;100966.38;;;12.19;88.78
66668;BME280;57205;51.438;-2.006;2023-04-26T11:13:34;100965.06;;;12.42;86.73
66668;BME280;57205;51.438;-2.006;2023-04-26T11:16:13;100961.03;;;12.34;86.16
66668;BME280;57205;51.438;-2.006;2023-04-26T11:18:43;100968.28;;;12.49;86.74
66668;BME280;57205;51.438;-2.006;2023-04-26T11:21:10;100966.16;;;12.41;85.67
66668;BME280;57205;51.438;-2.006;2023-04-26T11:23:37;100961.31;;;12.28;86.90
66668;BME280;57205;51.438;-2.006;2023-04-26T11:26:04;100967.97;;;12.15;86.76
66668;BME280;57205;51.438;-2.006;2023-04-26T11:28:30;100969.59;;;12.11;88.92
66668;BME280;57205;51.438;-2.006;2023-04-26T11:30:56;100970.38;;;12.12;88.41
66668;BME280;57205;51.438;-2.006;2023-04-26T11:33:22;100967.44;;;12.08;88.18
66668;BME280;57205;51.438;-2.006;2023-04-26T11:35:51;100976.00;;;11.95;88.44
66668;BME280;57205;51.438;-2.006;2023-04-26T11:38:20;100973.03;;;11.82;89.76
66668;BME280;57205;51.438;-2.006;2023-04-26T11:41:01;100964.38;;;11.69;91.17
66668;BME280;57205;51.438;-2.006;2023-04-26T11:43:35;100956.41;;;11.85;91.92
66668;BME280;57205;51.438;-2.006;2023-04-26T11:46:01;100956.94;;;11.92;92.38
66668;BME280;57205;51.438;-2.006;2023-04-26T11:48:31;100953.47;;;12.06;91.42
66668;BME280;57205;51.438;-2.006;2023-04-26T11:50:58;100960.44;;;12.02;89.38
66668;BME280;57205;51.438;-2.006;2023-04-26T11:53:24;100960.47;;;12.12;89.49
66668;BME280;57205;51.438;-2.006;2023-04-26T11:55:50;100959.16;;;12.15;89.50
66668;BME280;57205;51.438;-2.006;2023-04-26T11:58:16;100961.06;;;12.24;88.75
66668;BME280;57205;51.438;-2.006;2023-04-26T12:00:59;100953.25;;;12.18;90.71
66668;BME280;57205;51.438;-2.006;2023-04-26T12:03:33;100950.28;;;12.14;91.77
66668;BME280;57205;51.438;-2.006;2023-04-26T12:06:05;100948.66;;;12.08;91.37
66668;BME280;57205;51.438;-2.006;2023-04-26T12:08:31;100941.69;;;12.12;90.75
66668;BME280;57205;51.438;-2.006;2023-04-26T12:10:59;100942.25;;;12.19;90.67
66668;BME280;57205;51.438;-2.006;2023-04-26T12:13:27;100941.19;;;12.25;91.31
66668;BME280;57205;51.438;-2.006;2023-04-26T12:15:52;100944.16;;;12.39;90.05
66668;BME280;57205;51.438;-2.006;2023-04-26T12:18:18;100943.59;;;12.42;89.50
66668;BME280;57205;51.438;-2.006;2023-04-26T12:20:43;100939.59;;;12.49;88.94
66668;BME280;57205;51.438;-2.006;2023-04-26T12:23:14;100927.25;;;12.53;89.35
66668;BME280;57205;51.438;-2.006;2023-04-26T12:25:50;100939.84;;;12.53;89.99
66668;BME280;57205;51.438;-2.006;2023-04-26T12:28:16;100931.28;;;12.56;89.07
66668;BME280;57205;51.438;-2.006;2023-04-26T12:30:42;100939.84;;;12.58;88.94
66668;BME280;57205;51.438;-2.006;2023-04-26T12:33:07;100926.44;;;12.63;88.34
66668;BME280;57205;51.438;-2.006;2023-04-26T12:35:33;100933.66;;;12.67;88.44
66668;BME280;57205;51.438;-2.006;2023-04-26T12:37:59;100932.59;;;12.73;88.38
66668;BME280;57205;51.438;-2.006;2023-04-26T12:40:28;100934.19;;;12.80;87.64
66668;BME280;57205;51.438;-2.006;2023-04-26T12:42:54;100928.81;;;12.85;88.01
66668;BME280;57205;51.438;-2.006;2023-04-26T12:45:21;100933.38;;;12.94;88.10
66668;BME280;57205;51.438;-2.006;2023-04-26T12:47:47;100926.63;;;13.17;87.01
66668;BME280;57205;51.438;-2.006;2023-04-26T12:50:14;100926.06;;;13.20;86.64
66668;BME280;57205;51.438;-2.006;2023-04-26T12:52:41;100927.66;;;13.31;85.75
66668;BME280;57205;51.438;-2.006;2023-04-26T12:55:08;100924.44;;;13.34;85.53
66668;BME280;57205;51.438;-2.006;2023-04-26T12:57:40;100923.88;;;13.27;85.11
66668;BME280;57205;51.438;-2.006;2023-04-26T13:00:09;100927.16;;;13.14;86.49
66668;BME280;57205;51.438;-2.006;2023-04-26T13:02:34;100916.13;;;13.20;84.23
66668;BME280;57205;51.438;-2.006;2023-04-26T13:05:00;100918.50;;;13.32;85.34
66668;BME280;57205;51.438;-2.006;2023-04-26T13:07:32;100923.06;;;13.41;85.80
66668;BME280;57205;51.438;-2.006;2023-04-26T13:10:02;100914.16;;;13.46;81.76